Time;durP1;ratioP1;P1;durP2;ratioP2;P2;SDS_P1;SDS_P2;PMS_P1;PMS_P2;Temp;Humidity;BMP_temperature;BMP_pressure;BME280_temperature;BME280_humidity;BME280_pressure;Samples;Min_cycle;Max_cycle;Signal;HPM_P1;HPM_P2
2022/11/18 00:01:12;;;;;;;8.45;2.92;;;9.40;99.90;;;;;;5052550;28;20103;-75
2022/11/18 00:03:39;;;;;;;10.82;3.20;;;9.30;99.90;;;;;;5074624;28;20025;-75
2022/11/18 00:06:07;;;;;;;7.20;2.70;;;9.40;99.90;;;;;;5074710;28;20489;-75
2022/11/18 00:08:33;;;;;;;6.20;2.70;;;9.40;99.90;;;;;;5073103;28;20021;-75
2022/11/18 00:11:11;;;;;;;7.22;2.83;;;9.30;99.90;;;;;;5070412;28;20036;-75
2022/11/18 00:16:22;;;;;;;4.53;2.38;;;9.30;99.90;;;;;;5073106;28;20431;-75
2022/11/18 00:18:48;;;;;;;4.97;2.78;;;9.40;99.90;;;;;;5073086;28;20031;-75
2022/11/18 00:21:14;;;;;;;8.65;2.97;;;9.40;99.90;;;;;;5056499;28;20024;-76
2022/11/18 00:23:40;;;;;;;3.50;2.35;;;9.40;99.90;;;;;;5074514;28;20473;-76
2022/11/18 00:26:09;;;;;;;19.73;3.08;;;9.40;99.90;;;;;;5074015;28;20040;-75
2022/11/18 00:28:35;;;;;;;9.07;2.60;;;9.40;99.90;;;;;;5074505;28;20017;-75
2022/11/18 00:31:03;;;;;;;5.22;2.83;;;9.40;99.90;;;;;;5073398;28;20039;-75
2022/11/18 00:33:29;;;;;;;8.43;2.65;;;9.40;99.90;;;;;;5074061;28;20019;-75
2022/11/18 00:35:55;;;;;;;6.20;2.85;;;9.20;99.90;;;;;;5072869;28;20045;-75
2022/11/18 00:38:21;;;;;;;7.05;2.33;;;9.40;99.90;;;;;;5074115;28;20028;-75
2022/11/18 00:40:47;;;;;;;10.45;3.35;;;9.40;99.90;;;;;;5074253;28;20028;-75
2022/11/18 00:43:12;;;;;;;6.70;2.80;;;9.40;99.90;;;;;;5074006;28;20033;-75
2022/11/18 00:45:38;;;;;;;14.15;2.85;;;9.40;99.90;;;;;;5073387;28;20027;-76
2022/11/18 00:48:04;;;;;;;8.32;2.65;;;9.40;99.90;;;;;;5072701;28;20053;-75
2022/11/18 00:50:32;;;;;;;7.97;3.53;;;9.50;99.90;;;;;;5060082;28;20039;-75
2022/11/18 00:52:57;;;;;;;8.02;2.30;;;9.40;99.90;;;;;;5073772;28;20095;-75
2022/11/18 00:55:23;;;;;;;7.38;2.63;;;9.40;99.90;;;;;;5073919;28;20093;-76
2022/11/18 00:57:49;;;;;;;5.28;2.67;;;9.30;99.90;;;;;;5073866;28;20025;-75
2022/11/18 01:00:15;;;;;;;13.02;2.88;;;9.40;99.90;;;;;;5072504;28;20103;-75
2022/11/18 01:02:41;;;;;;;7.72;2.78;;;9.40;99.90;;;;;;5073538;28;20078;-75
2022/11/18 01:05:07;;;;;;;9.52;2.75;;;9.40;99.90;;;;;;5072432;28;20447;-75
2022/11/18 01:07:33;;;;;;;9.90;2.80;;;9.30;99.90;;;;;;5073351;28;20035;-75
2022/11/18 01:09:58;;;;;;;7.53;2.85;;;9.30;99.90;;;;;;5073706;28;20036;-76
2022/11/18 01:15:08;;;;;;;11.00;3.53;;;9.50;99.90;;;;;;5073479;28;20037;-75
2022/11/18 01:17:34;;;;;;;8.68;2.80;;;9.40;99.90;;;;;;5073564;28;20527;-75
2022/11/18 01:20:00;;;;;;;12.43;3.13;;;9.30;99.90;;;;;;5072314;28;20037;-75
2022/11/18 01:22:26;;;;;;;7.45;2.90;;;9.50;99.90;;;;;;5073418;28;20068;-75
2022/11/18 01:24:51;;;;;;;6.80;3.25;;;9.50;99.90;;;;;;5073310;28;20026;-75
2022/11/18 01:27:17;;;;;;;10.40;3.42;;;9.40;99.90;;;;;;5073213;28;20024;-75
2022/11/18 01:29:43;;;;;;;10.10;3.70;;;9.20;99.90;;;;;;5073008;28;20029;-75
2022/11/18 01:32:08;;;;;;;9.52;4.00;;;9.40;99.90;;;;;;5071575;28;20067;-75
2022/11/18 01:34:34;;;;;;;9.25;3.75;;;9.40;99.90;;;;;;5071901;28;20466;-75
2022/11/18 01:37:00;;;;;;;15.70;3.78;;;9.40;99.90;;;;;;5072882;28;20048;-75
2022/11/18 01:39:26;;;;;;;11.15;3.53;;;9.40;99.90;;;;;;5073126;28;20028;-76
2022/11/18 01:41:51;;;;;;;8.60;3.03;;;9.30;99.90;;;;;;5072648;28;20060;-74
2022/11/18 01:44:55;;;;;;;8.38;3.25;;;9.30;99.90;;;;;;5072989;28;20063;-75
2022/11/18 01:47:22;;;;;;;9.02;2.85;;;9.20;99.90;;;;;;5073098;28;20031;-75
2022/11/18 01:49:48;;;;;;;10.60;3.60;;;9.20;99.90;;;;;;5071976;28;20028;-75
2022/11/18 01:52:14;;;;;;;15.93;3.78;;;9.10;99.90;;;;;;5072527;28;20035;-74
2022/11/18 01:54:44;;;;;;;6.93;3.15;;;9.20;99.90;;;;;;5072982;28;20021;-75
2022/11/18 01:57:16;;;;;;;7.80;2.88;;;9.20;99.90;;;;;;5072609;28;20039;-75
2022/11/18 01:59:45;;;;;;;12.30;3.13;;;9.20;99.90;;;;;;5071334;28;20035;-75
2022/11/18 02:02:13;;;;;;;12.05;3.17;;;9.20;99.90;;;;;;5072499;28;20031;-75
2022/11/18 02:04:41;;;;;;;9.88;3.58;;;9.20;99.90;;;;;;5071584;28;20473;-75
2022/11/18 02:07:08;;;;;;;7.78;2.85;;;9.10;99.90;;;;;;5072735;28;20107;-74
2022/11/18 02:09:35;;;;;;;10.65;3.20;;;9.10;99.90;;;;;;5071359;28;20385;-75
2022/11/18 02:12:01;;;;;;;10.07;3.50;;;9.10;99.90;;;;;;5054828;28;20033;-75
2022/11/18 02:14:30;;;;;;;10.60;3.17;;;9.00;99.90;;;;;;5051107;28;20046;-75
2022/11/18 02:17:08;;;;;;;14.35;3.13;;;9.00;99.90;;;;;;5051113;28;20405;-75
2022/11/18 02:19:46;;;;;;;10.60;2.88;;;9.10;99.90;;;;;;5052523;28;20029;-75
2022/11/18 02:22:48;;;;;;;5.75;2.95;;;9.10;99.90;;;;;;5034724;28;20039;-75
2022/11/18 02:25:37;;;;;;;10.75;2.85;;;9.30;99.90;;;;;;5052341;28;20071;-75
2022/11/18 02:28:27;;;;;;;9.50;2.90;;;9.20;99.90;;;;;;5052014;28;20076;-75
2022/11/18 02:30:56;;;;;;;6.68;3.20;;;9.10;99.90;;;;;;5052442;28;20036;-75
2022/11/18 02:33:31;;;;;;;10.52;3.38;;;9.10;99.90;;;;;;5052130;28;20044;-75
2022/11/18 02:36:14;;;;;;;7.43;2.88;;;9.00;99.90;;;;;;5050974;28;20041;-75
2022/11/18 02:38:44;;;;;;;8.40;2.70;;;9.00;99.90;;;;;;5052227;28;20067;-74
2022/11/18 02:41:16;;;;;;;7.32;3.00;;;8.90;99.90;;;;;;5052565;28;20481;-75
2022/11/18 02:43:50;;;;;;;6.88;2.30;;;8.80;99.90;;;;;;5051705;28;20064;-75
2022/11/18 02:46:25;;;;;;;6.35;2.50;;;8.70;99.90;;;;;;5051050;28;20064;-75
2022/11/18 02:48:53;;;;;;;5.80;2.80;;;8.80;99.90;;;;;;5050847;28;20029;-75
2022/11/18 02:51:23;;;;;;;8.15;3.00;;;8.70;99.90;;;;;;5052475;28;20040;-74
2022/11/18 02:53:52;;;;;;;;;;;8.80;99.90;;;;;;5053277;28;20081;-75
2022/11/18 02:56:20;;;;;;;7.68;2.80;;;8.70;99.90;;;;;;5055037;28;19920;-74
2022/11/18 02:58:46;;;;;;;6.90;2.80;;;8.70;99.90;;;;;;5055530;28;20036;-75
2022/11/18 03:01:28;;;;;;;6.43;2.40;;;8.70;99.90;;;;;;5056373;28;20024;-75
2022/11/18 03:03:53;;;;;;;;;;;8.70;99.90;;;;;;5056456;28;20036;-75
2022/11/18 03:06:41;;;;;;;8.50;2.88;;;8.60;99.90;;;;;;5055542;28;20250;-76
2022/11/18 03:09:19;;;;;;;9.07;2.42;;;8.60;99.90;;;;;;5055790;28;20041;-75
2022/11/18 03:11:45;;;;;;;10.15;2.80;;;8.70;99.90;;;;;;5055722;28;20032;-75
2022/11/18 03:14:50;;;;;;;9.02;2.50;;;8.60;99.90;;;;;;5054648;28;20029;-75
2022/11/18 03:17:31;;;;;;;8.02;2.70;;;8.50;99.90;;;;;;5042775;28;20056;-75
2022/11/18 03:20:11;;;;;;;16.80;3.58;;;8.40;99.90;;;;;;5041771;28;20052;-75
2022/11/18 03:22:56;;;;;;;5.32;2.97;;;8.50;99.90;;;;;;5059232;28;20048;-75
2022/11/18 03:25:57;;;;;;;13.20;3.78;;;8.60;99.90;;;;;;5044078;28;20039;-75
2022/11/18 03:28:38;;;;;;;8.50;2.50;;;8.50;99.90;;;;;;5054230;28;20061;-75
2022/11/18 03:31:32;;;;;;;14.63;2.95;;;8.40;99.90;;;;;;5037608;28;20029;-75
2022/11/18 03:34:08;;;;;;;9.88;3.20;;;8.40;99.90;;;;;;5040255;28;20144;-75
2022/11/18 03:36:39;;;;;;;19.65;3.20;;;8.40;99.90;;;;;;5053445;28;20038;-75
2022/11/18 03:39:08;;;;;;;8.77;2.97;;;8.30;99.90;;;;;;5055665;28;20116;-75
2022/11/18 03:41:41;;;;;;;7.47;3.50;;;8.40;99.90;;;;;;5054806;28;20094;-74
2022/11/18 03:44:13;;;;;;;12.02;3.55;;;8.30;99.90;;;;;;5055450;28;20033;-75
2022/11/18 03:46:46;;;;;;;9.80;3.30;;;8.30;99.90;;;;;;5055334;28;20028;-74
2022/11/18 03:49:23;;;;;;;7.93;3.08;;;8.30;99.90;;;;;;5055402;28;20033;-74
2022/11/18 03:51:54;;;;;;;7.07;2.97;;;8.30;99.90;;;;;;5053662;28;20029;-75
2022/11/18 03:54:28;;;;;;;11.73;3.45;;;8.30;99.90;;;;;;5055205;28;20048;-75
2022/11/18 03:57:04;;;;;;;7.47;2.95;;;8.30;99.90;;;;;;5053243;28;20048;-75
2022/11/18 03:59:46;;;;;;;9.98;3.17;;;8.20;99.90;;;;;;5055109;28;20106;-75
2022/11/18 04:02:19;;;;;;;;;;;8.20;99.90;;;;;;5054123;28;20495;-75
2022/11/18 04:04:48;;;;;;;8.15;3.00;;;8.20;99.90;;;;;;5052963;28;20390;-74
2022/11/18 04:07:38;;;;;;;7.53;3.40;;;8.30;99.90;;;;;;5054148;28;20090;-75
2022/11/18 04:10:17;;;;;;;9.90;3.03;;;8.20;99.90;;;;;;5036526;28;20021;-75
2022/11/18 04:13:04;;;;;;;6.10;3.17;;;8.20;99.90;;;;;;5041217;28;20033;-75
2022/11/18 04:15:31;;;;;;;9.82;3.30;;;8.20;99.90;;;;;;5054204;28;20417;-75
2022/11/18 04:17:58;;;;;;;7.25;3.08;;;8.30;99.90;;;;;;5054553;28;20086;-75
2022/11/18 04:20:25;;;;;;;8.55;3.20;;;8.30;99.90;;;;;;5054615;28;20473;-75
2022/11/18 04:22:50;;;;;;;8.65;3.13;;;8.30;99.90;;;;;;5054441;28;20385;-75
2022/11/18 04:25:16;;;;;;;7.97;3.08;;;8.30;99.90;;;;;;5052992;28;20029;-74
2022/11/18 04:27:42;;;;;;;8.52;3.72;;;8.30;99.90;;;;;;5054343;28;20029;-74
2022/11/18 04:30:08;;;;;;;12.57;3.80;;;8.30;99.90;;;;;;5054322;28;20592;-75
2022/11/18 04:32:34;;;;;;;10.60;3.88;;;8.30;99.90;;;;;;5054143;28;20024;-74
2022/11/18 04:35:00;;;;;;;9.02;2.97;;;8.20;99.90;;;;;;5054138;28;20506;-74
2022/11/18 04:37:26;;;;;;;8.40;3.13;;;8.30;99.90;;;;;;5036195;28;20495;-74
2022/11/18 04:39:51;;;;;;;11.40;3.10;;;8.20;99.90;;;;;;5053790;28;20033;-74
2022/11/18 04:42:17;;;;;;;12.20;3.30;;;8.30;99.90;;;;;;5054048;28;20020;-74
2022/11/18 04:44:43;;;;;;;11.30;4.15;;;8.30;99.90;;;;;;5054308;28;20064;-74
2022/11/18 04:47:09;;;;;;;7.97;2.97;;;8.30;99.90;;;;;;5054293;28;20071;-74
2022/11/18 04:49:34;;;;;;;6.93;3.47;;;8.30;99.90;;;;;;5052754;28;20087;-74
2022/11/18 04:52:01;;;;;;;10.85;3.03;;;8.30;99.90;;;;;;5053836;28;20428;-74
2022/11/18 04:54:27;;;;;;;9.15;3.47;;;8.20;99.90;;;;;;5053753;28;20420;-74
2022/11/18 04:56:54;;;;;;;11.90;2.83;;;8.20;99.90;;;;;;5053772;28;20033;-74
2022/11/18 04:59:25;;;;;;;9.63;3.25;;;8.20;99.90;;;;;;5053669;28;20477;-74
2022/11/18 05:01:52;;;;;;;6.00;3.08;;;8.20;99.90;;;;;;5052448;28;20036;-74
2022/11/18 05:04:21;;;;;;;12.32;3.25;;;8.20;99.90;;;;;;5052752;28;20025;-74
2022/11/18 05:06:47;;;;;;;7.53;3.00;;;8.10;99.90;;;;;;5052438;28;20033;-75
2022/11/18 05:09:14;;;;;;;5.53;2.75;;;8.10;99.90;;;;;;5053196;28;20052;-74
2022/11/18 05:14:26;;;;;;;13.70;3.55;;;8.10;99.90;;;;;;5039921;28;20032;-75
2022/11/18 05:16:52;;;;;;;9.02;3.80;;;8.10;99.90;;;;;;5052968;28;20362;-74
2022/11/18 05:19:18;;;;;;;7.63;3.22;;;8.00;99.90;;;;;;5053558;28;20057;-74
2022/11/18 05:21:44;;;;;;;10.73;2.60;;;8.00;99.90;;;;;;5052937;28;20057;-74
2022/11/18 05:24:10;;;;;;;8.95;3.40;;;8.00;99.90;;;;;;5053335;28;20556;-74
2022/11/18 05:26:35;;;;;;;10.73;3.08;;;8.10;99.90;;;;;;5051977;28;20469;-74
2022/11/18 05:29:02;;;;;;;6.72;3.28;;;8.00;99.90;;;;;;5053265;28;20401;-74
2022/11/18 05:31:28;;;;;;;11.52;3.47;;;8.10;99.90;;;;;;5052716;28;20072;-74
2022/11/18 05:33:53;;;;;;;13.25;3.83;;;8.10;99.90;;;;;;5053094;28;20057;-75
2022/11/18 05:36:20;;;;;;;9.13;3.38;;;8.10;99.90;;;;;;5052661;28;20043;-75
2022/11/18 05:38:46;;;;;;;15.25;3.58;;;8.00;99.90;;;;;;5052866;28;20024;-74
2022/11/18 05:43:09;;;;;;;14.18;3.55;;;8.00;99.90;;;;;;5053226;28;20025;-75
2022/11/18 05:43:58;;;;;;;6.95;3.30;;;8.00;99.90;;;;;;5053126;28;20455;-74
2022/11/18 05:46:24;;;;;;;9.80;3.00;;;8.10;99.90;;;;;;5052793;28;20100;-76
2022/11/18 05:48:50;;;;;;;9.30;3.25;;;8.00;99.90;;;;;;5052596;28;20040;-76
2022/11/18 05:51:16;;;;;;;9.25;3.10;;;8.00;99.90;;;;;;5052754;28;20388;-76
2022/11/18 05:53:42;;;;;;;12.77;3.35;;;8.00;99.90;;;;;;5051345;28;20545;-76
2022/11/18 05:56:33;;;;;;;11.13;3.78;;;8.10;99.90;;;;;;5052923;28;20125;-76
2022/11/18 05:58:58;;;;;;;14.02;3.85;;;8.20;99.90;;;;;;5051785;28;20033;-76
2022/11/18 06:01:36;;;;;;;14.55;3.95;;;8.20;99.90;;;;;;5052667;28;20159;-76
2022/11/18 06:04:07;;;;;;;12.95;4.22;;;8.10;99.90;;;;;;5052463;28;20424;-75
2022/11/18 06:06:34;;;;;;;11.27;3.22;;;8.20;99.90;;;;;;5052522;28;20373;-76
2022/11/18 06:09:03;;;;;;;17.08;3.60;;;8.20;99.90;;;;;;5052392;28;20028;-76
2022/11/18 06:11:31;;;;;;;7.38;3.00;;;8.30;99.90;;;;;;5052871;28;20025;-76
2022/11/18 06:14:05;;;;;;;15.05;3.33;;;8.30;99.90;;;;;;5052211;28;20029;-76
2022/11/18 06:16:33;;;;;;;17.55;3.85;;;8.30;99.90;;;;;;5052446;28;20059;-76
2022/11/18 06:19:01;;;;;;;14.70;3.33;;;8.40;99.90;;;;;;5052230;28;20033;-77
2022/11/18 06:21:28;;;;;;;11.00;3.30;;;8.50;99.90;;;;;;5052391;28;20020;-76
2022/11/18 06:23:53;;;;;;;13.52;3.83;;;8.50;99.90;;;;;;5052482;28;20083;-76
2022/11/18 06:26:19;;;;;;;8.63;3.58;;;8.50;99.90;;;;;;5052467;28;20029;-76
2022/11/18 06:28:47;;;;;;;18.92;3.67;;;8.60;99.90;;;;;;5051891;28;20033;-76
2022/11/18 06:31:15;;;;;;;8.18;3.08;;;8.70;99.90;;;;;;5056681;28;20090;-76
2022/11/18 06:33:41;;;;;;;11.68;3.92;;;8.60;99.90;;;;;;5056099;28;20036;-76
2022/11/18 06:36:07;;;;;;;5.45;2.65;;;8.50;99.90;;;;;;5056193;28;20041;-76
2022/11/18 06:38:33;;;;;;;13.48;2.97;;;8.50;99.90;;;;;;5056246;28;20025;-76
2022/11/18 06:41:00;;;;;;;13.77;2.95;;;8.50;99.90;;;;;;5056486;28;20028;-76
2022/11/18 06:43:40;;;;;;;15.07;3.20;;;8.50;99.90;;;;;;5054844;28;20064;-76
2022/11/18 06:48:56;;;;;;;12.05;2.55;;;8.40;99.90;;;;;;5045901;28;20622;-76
2022/11/18 06:51:22;;;;;;;18.70;3.13;;;8.30;99.90;;;;;;5056410;28;20096;-76
2022/11/18 06:53:48;;;;;;;14.63;3.55;;;8.40;99.90;;;;;;5049098;28;20565;-76
2022/11/18 06:56:16;;;;;;;13.07;3.17;;;8.30;99.90;;;;;;5055614;28;20110;-76
2022/11/18 06:58:42;;;;;;;7.82;2.97;;;8.30;99.90;;;;;;5066216;28;20028;-76
2022/11/18 07:01:09;;;;;;;14.23;3.72;;;8.40;99.90;;;;;;5065041;28;20033;-76
2022/11/18 07:03:34;;;;;;;9.00;3.00;;;8.30;99.90;;;;;;5062343;28;20016;-76
2022/11/18 07:06:00;;;;;;;9.32;3.20;;;8.20;99.90;;;;;;5056480;28;20040;-76
2022/11/18 07:08:26;;;;;;;12.52;3.65;;;8.30;99.90;;;;;;5068036;28;20029;-76
2022/11/18 07:10:53;;;;;;;19.17;3.60;;;8.30;99.90;;;;;;5065721;28;20074;-76
2022/11/18 07:13:19;;;;;;;10.77;3.22;;;8.30;99.90;;;;;;5041251;28;20024;-76
2022/11/18 07:15:44;;;;;;;14.23;3.65;;;8.30;99.90;;;;;;5059521;28;20036;-76
2022/11/18 07:18:10;;;;;;;15.82;3.10;;;8.40;99.90;;;;;;5055026;28;20408;-76
2022/11/18 07:20:36;;;;;;;9.90;3.03;;;8.30;99.90;;;;;;5067373;28;20025;-76
2022/11/18 07:23:01;;;;;;;15.40;3.50;;;8.30;99.90;;;;;;5056685;28;20029;-76
2022/11/18 07:25:27;;;;;;;17.60;3.25;;;8.40;99.90;;;;;;5069080;28;20028;-76
2022/11/18 07:27:53;;;;;;;9.88;2.75;;;8.30;99.90;;;;;;5065230;28;20032;-76
2022/11/18 07:30:20;;;;;;;11.70;2.92;;;8.30;99.90;;;;;;5059530;28;20027;-75
2022/11/18 07:32:46;;;;;;;21.60;3.10;;;8.40;99.90;;;;;;5056807;28;20032;-76
2022/11/18 07:35:12;;;;;;;15.07;3.80;;;8.50;99.90;;;;;;5069562;28;20028;-76
2022/11/18 07:37:37;;;;;;;14.57;3.60;;;8.60;99.90;;;;;;5069206;28;20034;-76
2022/11/18 07:40:04;;;;;;;8.02;3.10;;;8.60;99.90;;;;;;5062960;28;20025;-75
2022/11/18 07:42:41;;;;;;;15.95;3.17;;;8.70;99.90;;;;;;5057146;28;20505;-76
2022/11/18 07:45:20;;;;;;;12.35;2.95;;;8.80;99.90;;;;;;5037380;28;20393;-76
2022/11/18 07:47:46;;;;;;;12.82;3.40;;;8.80;99.90;;;;;;5043719;28;20037;-76
2022/11/18 07:50:12;;;;;;;9.05;2.85;;;8.80;99.90;;;;;;5049219;28;20041;-76
2022/11/18 07:52:37;;;;;;;8.88;3.15;;;8.80;99.90;;;;;;5049564;28;20025;-75
2022/11/18 07:55:03;;;;;;;11.95;3.20;;;8.80;99.90;;;;;;5052297;28;20036;-76
2022/11/18 07:57:29;;;;;;;13.15;3.53;;;8.90;99.90;;;;;;5059321;28;20024;-76
2022/11/18 07:59:55;;;;;;;19.73;2.45;;;9.00;99.90;;;;;;5064213;28;20028;-76
2022/11/18 08:02:20;;;;;;;9.32;2.95;;;8.80;99.90;;;;;;5057876;28;20040;-76
2022/11/18 08:04:46;;;;;;;11.55;3.08;;;8.80;99.90;;;;;;5054750;28;20021;-76
2022/11/18 08:07:12;;;;;;;14.32;3.10;;;8.90;99.90;;;;;;5058881;28;20040;-76
2022/11/18 08:09:38;;;;;;;17.92;3.15;;;8.90;99.90;;;;;;5068118;28;20031;-76
2022/11/18 08:12:04;;;;;;;13.30;2.92;;;9.00;99.90;;;;;;5059901;28;20448;-76
2022/11/18 08:14:30;;;;;;;12.82;3.60;;;8.90;99.90;;;;;;5057321;28;20476;-76
2022/11/18 08:16:56;;;;;;;16.02;2.85;;;9.00;99.90;;;;;;5053006;28;20063;-76
2022/11/18 08:19:22;;;;;;;11.07;3.03;;;9.00;99.90;;;;;;5057427;28;20047;-76
2022/11/18 08:21:47;;;;;;;14.93;4.10;;;8.90;99.90;;;;;;5059839;28;20104;-76
2022/11/18 08:24:13;;;;;;;14.02;3.50;;;9.00;99.90;;;;;;5065125;28;20362;-76
2022/11/18 08:26:39;;;;;;;9.98;2.70;;;9.00;99.90;;;;;;5064338;28;20025;-75
2022/11/18 08:29:04;;;;;;;15.00;3.67;;;9.10;99.90;;;;;;5063377;28;20027;-77
2022/11/18 08:31:30;;;;;;;12.55;3.67;;;9.20;99.90;;;;;;5059210;28;20515;-77
2022/11/18 08:33:58;;;;;;;13.52;3.60;;;9.10;99.90;;;;;;5064395;28;20086;-77
2022/11/18 08:36:27;;;;;;;9.68;4.13;;;9.10;99.90;;;;;;5056539;28;20068;-76
2022/11/18 08:38:55;;;;;;;16.23;3.72;;;9.20;99.90;;;;;;5063816;28;20045;-77
2022/11/18 08:41:29;;;;;;;9.27;3.22;;;9.30;99.90;;;;;;5063089;28;20429;-76
2022/11/18 08:43:55;;;;;;;12.40;3.67;;;9.30;99.90;;;;;;5043803;28;20044;-77
2022/11/18 08:46:21;;;;;;;9.82;3.63;;;9.40;99.90;;;;;;5052943;28;20029;-76
2022/11/18 08:48:47;;;;;;;17.95;3.63;;;9.60;99.90;;;;;;5063451;28;20044;-76
2022/11/18 08:51:14;;;;;;;13.40;4.05;;;9.60;99.90;;;;;;5063725;28;20087;-76
2022/11/18 08:53:40;;;;;;;14.75;3.63;;;9.40;99.90;;;;;;5058595;28;20041;-77
2022/11/18 08:56:06;;;;;;;13.68;3.38;;;9.50;99.90;;;;;;5053449;28;20041;-76
2022/11/18 08:58:32;;;;;;;20.65;3.80;;;9.50;99.90;;;;;;5064950;28;20069;-76
2022/11/18 09:01:04;;;;;;;14.35;3.88;;;9.60;99.90;;;;;;5063530;28;20419;-76
2022/11/18 09:03:29;;;;;;;6.25;2.55;;;9.70;99.90;;;;;;5063304;28;20063;-76
2022/11/18 09:06:06;;;;;;;8.38;3.78;;;9.70;99.90;;;;;;5053726;28;20056;-77
2022/11/18 09:08:32;;;;;;;16.35;4.07;;;9.70;99.90;;;;;;5050083;28;20470;-77
2022/11/18 09:10:58;;;;;;;14.43;4.50;;;9.70;99.90;;;;;;5052815;28;20028;-77
2022/11/18 09:13:24;;;;;;;14.23;3.47;;;9.70;99.90;;;;;;5052351;28;20065;-77
2022/11/18 09:15:50;;;;;;;17.27;4.47;;;9.80;99.90;;;;;;5050679;28;20047;-77
2022/11/18 09:18:15;;;;;;;12.77;3.10;;;9.70;99.90;;;;;;5053154;28;20032;-77
2022/11/18 09:20:42;;;;;;;12.45;3.83;;;9.60;99.90;;;;;;5051933;28;20029;-77
2022/11/18 09:23:08;;;;;;;15.88;3.45;;;9.80;99.90;;;;;;5043256;28;20014;-77
2022/11/18 09:25:34;;;;;;;10.80;3.47;;;9.70;99.90;;;;;;5063473;28;20052;-76
2022/11/18 09:28:00;;;;;;;10.88;3.95;;;9.80;99.90;;;;;;5064376;28;20041;-77
2022/11/18 09:30:26;;;;;;;13.15;3.47;;;9.80;99.90;;;;;;5063105;28;20027;-77
2022/11/18 09:32:52;;;;;;;14.77;4.45;;;9.90;99.90;;;;;;5055169;28;20120;-77
2022/11/18 09:35:17;;;;;;;16.45;3.42;;;9.90;99.90;;;;;;5065582;28;20493;-77
2022/11/18 09:37:43;;;;;;;13.82;2.95;;;9.90;99.90;;;;;;5066345;28;20416;-77
2022/11/18 09:40:18;;;;;;;17.73;4.63;;;9.90;99.90;;;;;;5060435;28;20035;-76
2022/11/18 09:43:16;;;;;;;10.02;3.58;;;10.20;99.90;;;;;;5059600;28;20086;-78
2022/11/18 09:45:48;;;;;;;8.55;2.92;;;10.10;99.90;;;;;;5060092;28;20047;-77
2022/11/18 09:48:20;;;;;;;12.70;3.95;;;10.00;99.90;;;;;;5061399;28;20025;-78
2022/11/18 09:50:45;;;;;;;10.98;3.17;;;9.90;99.90;;;;;;5052262;28;20381;-78
2022/11/18 09:53:23;;;;;;;16.83;3.55;;;9.90;99.90;;;;;;5053284;28;20025;-77
2022/11/18 09:55:50;;;;;;;12.35;3.97;;;9.90;99.90;;;;;;5063441;28;20064;-77
2022/11/18 09:58:37;;;;;;;13.80;3.97;;;9.90;99.90;;;;;;5063281;28;20104;-77
2022/11/18 10:01:13;;;;;;;12.95;3.72;;;10.10;99.90;;;;;;5054290;28;20473;-78
2022/11/18 10:03:40;;;;;;;6.70;2.90;;;10.00;99.90;;;;;;5044806;28;20028;-77
2022/11/18 10:06:09;;;;;;;8.90;2.85;;;9.90;99.90;;;;;;5049251;28;20016;-77
2022/11/18 10:08:40;;;;;;;13.52;4.05;;;10.00;99.90;;;;;;5050410;28;20039;-78
2022/11/18 10:11:19;;;;;;;16.98;3.85;;;9.90;99.90;;;;;;5051481;28;20465;-78
2022/11/18 10:14:06;;;;;;;12.93;4.45;;;10.10;99.90;;;;;;5042967;28;20033;-78
2022/11/18 10:17:02;;;;;;;12.68;4.13;;;10.00;99.90;;;;;;5050728;28;20041;-78
2022/11/18 10:19:41;;;;;;;13.60;4.05;;;10.00;99.90;;;;;;5054617;28;20029;-77
2022/11/18 10:22:24;;;;;;;16.88;3.85;;;10.00;99.90;;;;;;5053734;28;20028;-78
2022/11/18 10:24:52;;;;;;;14.35;4.43;;;10.10;99.90;;;;;;5058794;28;20029;-77
2022/11/18 10:27:19;;;;;;;11.18;4.10;;;10.00;99.90;;;;;;5054643;28;20028;-78
2022/11/18 10:29:52;;;;;;;8.77;4.22;;;10.10;99.90;;;;;;5052446;28;20442;-78
2022/11/18 10:32:18;;;;;;;19.00;3.58;;;10.10;99.90;;;;;;5067495;28;20024;-77
2022/11/18 10:34:51;;;;;;;16.40;3.72;;;9.90;99.90;;;;;;5045169;28;20017;-77
2022/11/18 10:37:35;;;;;;;15.48;3.83;;;10.00;99.90;;;;;;5056256;28;20033;-77
2022/11/18 10:40:04;;;;;;;17.20;3.72;;;10.30;99.90;;;;;;5056304;28;20051;-78
2022/11/18 10:42:45;;;;;;;17.10;4.38;;;10.30;99.90;;;;;;5068844;28;20024;-76
2022/11/18 10:45:22;;;;;;;14.90;3.33;;;10.20;99.90;;;;;;5061045;28;20090;-77
2022/11/18 10:48:13;;;;;;;8.85;3.90;;;10.00;99.90;;;;;;5057633;28;20044;-77
2022/11/18 10:50:42;;;;;;;17.33;4.00;;;10.00;99.90;;;;;;5041035;28;20128;-77
2022/11/18 10:53:30;;;;;;;12.82;3.88;;;9.90;99.90;;;;;;5059779;28;20306;-77
2022/11/18 10:56:02;;;;;;;16.05;3.60;;;9.90;99.90;;;;;;5050667;28;20091;-77
2022/11/18 10:58:29;;;;;;;;;;;10.00;99.90;;;;;;5055252;28;20052;-77
2022/11/18 11:01:04;;;;;;;11.27;3.83;;;9.80;99.90;;;;;;5053541;28;19916;-77
2022/11/18 11:03:36;;;;;;;11.85;3.72;;;9.90;99.90;;;;;;5052028;28;20124;-77
2022/11/18 11:06:25;;;;;;;14.93;3.78;;;9.90;99.90;;;;;;5066124;28;20025;-77
2022/11/18 11:08:59;;;;;;;13.45;4.50;;;9.90;99.90;;;;;;5061811;28;20063;-76
2022/11/18 11:11:32;;;;;;;14.38;3.85;;;10.00;99.90;;;;;;5054406;28;20478;-76
2022/11/18 11:14:17;;;;;;;12.48;5.65;;;10.00;99.90;;;;;;5053828;28;20071;-76
2022/11/18 11:17:17;;;;;;;22.90;5.70;;;10.10;99.90;;;;;;5064034;28;20041;-76
2022/11/18 11:19:51;;;;;;;11.15;5.05;;;10.10;99.90;;;;;;5040709;28;20037;-77
2022/11/18 11:22:17;;;;;;;11.77;3.65;;;10.20;99.90;;;;;;5061066;28;20070;-77
2022/11/18 11:24:43;;;;;;;18.02;4.88;;;10.20;99.90;;;;;;5047392;28;20476;-77
2022/11/18 11:27:32;;;;;;;12.10;4.15;;;10.30;99.90;;;;;;5057424;28;20025;-76
2022/11/18 11:30:15;;;;;;;11.00;3.58;;;10.30;99.90;;;;;;5053929;28;20381;-77
2022/11/18 11:33:05;;;;;;;13.10;4.28;;;10.30;99.90;;;;;;5059223;28;20036;-77
2022/11/18 11:35:45;;;;;;;17.40;4.32;;;10.40;99.90;;;;;;5034462;28;20459;-77
2022/11/18 11:38:24;;;;;;;20.60;5.38;;;10.20;99.90;;;;;;5051611;28;20115;-77
2022/11/18 11:41:17;;;;;;;19.70;5.15;;;10.20;99.90;;;;;;5063301;28;20033;-77
2022/11/18 11:44:22;;;;;;;13.63;3.72;;;10.10;99.90;;;;;;5061625;28;20385;-77
2022/11/18 11:50:28;;;;;;;10.13;3.95;;;10.10;99.90;;;;;;5044052;28;20036;-78
2022/11/18 11:53:26;;;;;;;14.98;4.93;;;10.00;99.90;;;;;;5062789;28;20040;-77
2022/11/18 11:56:10;;;;;;;14.65;4.63;;;10.20;99.90;;;;;;5061133;28;20564;-78
2022/11/18 11:59:00;;;;;;;14.70;5.82;;;10.40;99.90;;;;;;5051801;28;20476;-78
2022/11/18 12:01:38;;;;;;;13.23;4.78;;;10.30;99.90;;;;;;5057117;28;20048;-77
2022/11/18 12:04:17;;;;;;;14.80;4.82;;;10.40;99.90;;;;;;5056219;28;20039;-78
2022/11/18 12:06:48;;;;;;;14.20;4.05;;;10.40;99.90;;;;;;5054923;28;20032;-78
2022/11/18 12:09:19;;;;;;;16.50;4.75;;;10.30;99.90;;;;;;5053528;28;20086;-77
2022/11/18 12:11:59;;;;;;;19.60;5.43;;;10.30;99.90;;;;;;5053261;28;20044;-77
2022/11/18 12:14:45;;;;;;;15.38;5.05;;;10.30;99.90;;;;;;5054441;28;20150;-75
2022/11/18 12:17:26;;;;;;;9.85;3.88;;;10.30;99.90;;;;;;5049382;28;20048;-75
2022/11/18 12:19:52;;;;;;;10.05;4.50;;;10.30;99.90;;;;;;5053448;28;20400;-75
2022/11/18 12:22:17;;;;;;;12.65;4.10;;;10.40;99.90;;;;;;5052859;28;20025;-75
2022/11/18 12:24:43;;;;;;;9.95;4.22;;;10.40;99.90;;;;;;5053299;28;20032;-75
2022/11/18 12:27:14;;;;;;;15.43;4.70;;;10.30;99.90;;;;;;5052074;28;20025;-75
2022/11/18 12:29:49;;;;;;;13.57;4.82;;;10.30;99.90;;;;;;5054390;28;20048;-75
2022/11/18 12:32:31;;;;;;;17.58;4.70;;;10.40;99.90;;;;;;5054384;28;20379;-75
2022/11/18 12:34:59;;;;;;;;;;;10.60;99.90;;;;;;5054624;28;20036;-75
2022/11/18 12:37:25;;;;;;;14.57;3.80;;;10.60;99.90;;;;;;5053842;28;19917;-75
2022/11/18 12:39:57;;;;;;;13.07;3.97;;;10.50;99.90;;;;;;5053152;28;20032;-75
2022/11/18 12:45:42;;;;;;;15.35;3.47;;;10.60;99.90;;;;;;5052556;28;20531;-75
2022/11/18 12:48:23;;;;;;;12.50;4.53;;;10.50;99.90;;;;;;5054134;28;20083;-75
2022/11/18 12:50:50;;;;;;;15.82;3.50;;;10.40;99.90;;;;;;5037522;28;20030;-75
2022/11/18 12:53:38;;;;;;;15.60;3.85;;;10.50;99.90;;;;;;5047706;28;20032;-75
2022/11/18 12:56:18;;;;;;;10.05;3.67;;;10.40;99.90;;;;;;5053878;28;20044;-75
2022/11/18 12:58:49;;;;;;;14.93;3.83;;;10.60;99.90;;;;;;5053804;28;20025;-75
2022/11/18 13:01:29;;;;;;;11.40;4.23;;;10.80;99.90;;;;;;5052353;28;20485;-75
2022/11/18 13:04:15;;;;;;;14.35;5.80;;;10.90;99.90;;;;;;5053626;28;20287;-75
2022/11/18 13:06:42;;;;;;;13.75;5.53;;;10.70;99.90;;;;;;5053631;28;20481;-75
2022/11/18 13:09:17;;;;;;;14.55;6.63;;;10.70;99.90;;;;;;5053654;28;20048;-75
2022/11/18 13:11:50;;;;;;;10.75;4.50;;;10.70;99.90;;;;;;5052140;28;20523;-75
2022/11/18 13:20:23;;;;;;;13.10;4.40;;;10.40;99.90;;;;;;5053457;28;20036;-75
2022/11/18 13:26:02;;;;;;;16.65;3.63;;;10.40;99.90;;;;;;5053221;28;20532;-75
2022/11/18 13:28:48;;;;;;;13.10;3.95;;;10.70;99.90;;;;;;5053109;28;20082;-75
2022/11/18 13:31:30;;;;;;;16.60;4.43;;;10.50;99.90;;;;;;5053294;28;20021;-75
2022/11/18 13:34:07;;;;;;;12.98;3.70;;;10.50;99.90;;;;;;5051826;28;20029;-75
2022/11/18 13:36:33;;;;;;;9.05;3.63;;;10.50;99.90;;;;;;5052644;28;20426;-75
2022/11/18 13:39:03;;;;;;;13.60;4.07;;;10.40;99.90;;;;;;5052598;28;20055;-75